sensor_id;sensor_type;location;lat;lon;timestamp;P1;durP1;ratioP1;P2;durP2;ratioP2
74593;SDS011;63097;51.872;4.460;2023-02-11T00:00:32;17.83;;;2.78;;
74593;SDS011;63097;51.872;4.460;2023-02-11T00:02:58;26.25;;;2.88;;
74593;SDS011;63097;51.872;4.460;2023-02-11T00:05:23;18.10;;;2.03;;
74593;SDS011;63097;51.872;4.460;2023-02-11T00:07:48;20.50;;;2.50;;
74593;SDS011;63097;51.872;4.460;2023-02-11T00:10:14;26.50;;;3.13;;
74593;SDS011;63097;51.872;4.460;2023-02-11T00:12:39;12.35;;;1.38;;
74593;SDS011;63097;51.872;4.460;2023-02-11T00:15:05;17.38;;;2.22;;
74593;SDS011;63097;51.872;4.460;2023-02-11T00:17:32;16.50;;;2.05;;
74593;SDS011;63097;51.872;4.460;2023-02-11T00:19:57;28.90;;;2.50;;
74593;SDS011;63097;51.872;4.460;2023-02-11T00:22:23;17.77;;;2.42;;
74593;SDS011;63097;51.872;4.460;2023-02-11T00:24:48;15.23;;;2.35;;
74593;SDS011;63097;51.872;4.460;2023-02-11T00:27:13;20.42;;;2.50;;
74593;SDS011;63097;51.872;4.460;2023-02-11T00:29:39;22.75;;;3.67;;
74593;SDS011;63097;51.872;4.460;2023-02-11T00:32:04;16.40;;;2.03;;
74593;SDS011;63097;51.872;4.460;2023-02-11T00:34:30;24.40;;;2.47;;
74593;SDS011;63097;51.872;4.460;2023-02-11T00:36:56;16.98;;;2.58;;
74593;SDS011;63097;51.872;4.460;2023-02-11T00:39:22;16.85;;;2.58;;
74593;SDS011;63097;51.872;4.460;2023-02-11T00:41:47;17.67;;;2.05;;
74593;SDS011;63097;51.872;4.460;2023-02-11T00:44:13;19.73;;;2.35;;
74593;SDS011;63097;51.872;4.460;2023-02-11T00:46:38;18.17;;;1.98;;
74593;SDS011;63097;51.872;4.460;2023-02-11T00:49:03;16.67;;;2.25;;
74593;SDS011;63097;51.872;4.460;2023-02-11T00:51:29;23.50;;;2.40;;
74593;SDS011;63097;51.872;4.460;2023-02-11T00:53:54;21.50;;;2.80;;
74593;SDS011;63097;51.872;4.460;2023-02-11T00:56:19;23.92;;;2.50;;
74593;SDS011;63097;51.872;4.460;2023-02-11T00:58:45;25.95;;;3.45;;
74593;SDS011;63097;51.872;4.460;2023-02-11T01:01:11;23.63;;;2.25;;
74593;SDS011;63097;51.872;4.460;2023-02-11T01:03:37;21.27;;;2.08;;
74593;SDS011;63097;51.872;4.460;2023-02-11T01:06:03;22.25;;;2.60;;
74593;SDS011;63097;51.872;4.460;2023-02-11T01:08:29;27.55;;;2.42;;
74593;SDS011;63097;51.872;4.460;2023-02-11T01:10:59;23.48;;;3.40;;
74593;SDS011;63097;51.872;4.460;2023-02-11T01:13:28;16.40;;;2.05;;
74593;SDS011;63097;51.872;4.460;2023-02-11T01:15:54;16.38;;;2.38;;
74593;SDS011;63097;51.872;4.460;2023-02-11T01:18:20;25.25;;;2.25;;
74593;SDS011;63097;51.872;4.460;2023-02-11T01:20:46;23.92;;;2.95;;
74593;SDS011;63097;51.872;4.460;2023-02-11T01:23:11;19.33;;;2.95;;
74593;SDS011;63097;51.872;4.460;2023-02-11T01:25:36;19.05;;;2.33;;
74593;SDS011;63097;51.872;4.460;2023-02-11T01:28:02;20.42;;;2.88;;
74593;SDS011;63097;51.872;4.460;2023-02-11T01:30:27;7.20;;;1.35;;
74593;SDS011;63097;51.872;4.460;2023-02-11T01:32:52;20.85;;;2.35;;
74593;SDS011;63097;51.872;4.460;2023-02-11T01:35:17;12.82;;;2.53;;
74593;SDS011;63097;51.872;4.460;2023-02-11T01:37:43;18.33;;;1.85;;
74593;SDS011;63097;51.872;4.460;2023-02-11T01:40:12;15.75;;;1.98;;
74593;SDS011;63097;51.872;4.460;2023-02-11T01:42:40;20.40;;;2.42;;
74593;SDS011;63097;51.872;4.460;2023-02-11T01:48:21;25.02;;;2.38;;
74593;SDS011;63097;51.872;4.460;2023-02-11T01:50:51;15.88;;;2.88;;
74593;SDS011;63097;51.872;4.460;2023-02-11T01:53:21;21.05;;;2.97;;
74593;SDS011;63097;51.872;4.460;2023-02-11T01:55:47;19.60;;;3.03;;
74593;SDS011;63097;51.872;4.460;2023-02-11T01:58:12;23.23;;;3.00;;
74593;SDS011;63097;51.872;4.460;2023-02-11T02:00:38;25.85;;;2.92;;
74593;SDS011;63097;51.872;4.460;2023-02-11T02:03:04;29.20;;;3.08;;
74593;SDS011;63097;51.872;4.460;2023-02-11T02:05:42;20.75;;;2.78;;
74593;SDS011;63097;51.872;4.460;2023-02-11T02:08:22;26.10;;;3.35;;
74593;SDS011;63097;51.872;4.460;2023-02-11T02:10:55;30.67;;;2.92;;
74593;SDS011;63097;51.872;4.460;2023-02-11T02:13:22;17.30;;;2.72;;
74593;SDS011;63097;51.872;4.460;2023-02-11T02:15:49;24.23;;;3.50;;
74593;SDS011;63097;51.872;4.460;2023-02-11T02:43:15;30.30;;;3.88;;
74593;SDS011;63097;51.872;4.460;2023-02-11T02:45:41;26.15;;;4.35;;
74593;SDS011;63097;51.872;4.460;2023-02-11T02:48:06;21.80;;;4.32;;
74593;SDS011;63097;51.872;4.460;2023-02-11T02:50:46;28.33;;;3.42;;
74593;SDS011;63097;51.872;4.460;2023-02-11T02:53:17;26.67;;;3.53;;
74593;SDS011;63097;51.872;4.460;2023-02-11T03:01:47;25.92;;;3.45;;
74593;SDS011;63097;51.872;4.460;2023-02-11T03:07:02;32.38;;;4.15;;
74593;SDS011;63097;51.872;4.460;2023-02-11T03:09:44;36.22;;;4.60;;
74593;SDS011;63097;51.872;4.460;2023-02-11T03:12:18;29.45;;;3.90;;
74593;SDS011;63097;51.872;4.460;2023-02-11T03:14:45;33.10;;;3.92;;
74593;SDS011;63097;51.872;4.460;2023-02-11T03:17:13;23.80;;;3.88;;
74593;SDS011;63097;51.872;4.460;2023-02-11T03:19:41;35.20;;;4.25;;
74593;SDS011;63097;51.872;4.460;2023-02-11T03:22:11;24.48;;;5.30;;
74593;SDS011;63097;51.872;4.460;2023-02-11T03:24:49;28.67;;;4.43;;
74593;SDS011;63097;51.872;4.460;2023-02-11T03:35:20;27.98;;;4.82;;
74593;SDS011;63097;51.872;4.460;2023-02-11T03:37:52;25.98;;;4.15;;
74593;SDS011;63097;51.872;4.460;2023-02-11T03:40:44;33.92;;;5.72;;
74593;SDS011;63097;51.872;4.460;2023-02-11T03:43:11;30.48;;;5.22;;
74593;SDS011;63097;51.872;4.460;2023-02-11T03:45:41;29.10;;;4.38;;
74593;SDS011;63097;51.872;4.460;2023-02-11T03:48:17;21.42;;;4.28;;
74593;SDS011;63097;51.872;4.460;2023-02-11T03:50:47;25.65;;;5.10;;
74593;SDS011;63097;51.872;4.460;2023-02-11T03:53:15;35.00;;;5.45;;
74593;SDS011;63097;51.872;4.460;2023-02-11T03:55:42;25.38;;;5.15;;
74593;SDS011;63097;51.872;4.460;2023-02-11T03:58:09;25.63;;;5.50;;
74593;SDS011;63097;51.872;4.460;2023-02-11T04:00:36;31.90;;;5.88;;
74593;SDS011;63097;51.872;4.460;2023-02-11T04:03:03;33.63;;;5.90;;
74593;SDS011;63097;51.872;4.460;2023-02-11T04:05:29;35.65;;;5.88;;
74593;SDS011;63097;51.872;4.460;2023-02-11T04:07:54;31.77;;;7.25;;
74593;SDS011;63097;51.872;4.460;2023-02-11T04:10:19;28.80;;;6.22;;
74593;SDS011;63097;51.872;4.460;2023-02-11T04:12:45;28.30;;;5.97;;
74593;SDS011;63097;51.872;4.460;2023-02-11T04:15:10;50.05;;;5.70;;
74593;SDS011;63097;51.872;4.460;2023-02-11T04:17:36;32.42;;;6.38;;
74593;SDS011;63097;51.872;4.460;2023-02-11T04:20:01;27.63;;;5.13;;
74593;SDS011;63097;51.872;4.460;2023-02-11T04:22:26;23.95;;;5.65;;
74593;SDS011;63097;51.872;4.460;2023-02-11T04:24:52;27.55;;;6.18;;
74593;SDS011;63097;51.872;4.460;2023-02-11T04:27:17;30.05;;;6.70;;
74593;SDS011;63097;51.872;4.460;2023-02-11T04:29:42;28.75;;;5.88;;
74593;SDS011;63097;51.872;4.460;2023-02-11T04:32:08;29.17;;;6.82;;
74593;SDS011;63097;51.872;4.460;2023-02-11T04:34:35;28.63;;;6.45;;
74593;SDS011;63097;51.872;4.460;2023-02-11T04:37:00;33.42;;;6.22;;
74593;SDS011;63097;51.872;4.460;2023-02-11T04:39:26;29.75;;;5.78;;
74593;SDS011;63097;51.872;4.460;2023-02-11T04:41:51;35.80;;;7.75;;
74593;SDS011;63097;51.872;4.460;2023-02-11T04:44:16;45.20;;;7.50;;
74593;SDS011;63097;51.872;4.460;2023-02-11T04:46:42;31.23;;;6.32;;
74593;SDS011;63097;51.872;4.460;2023-02-11T04:49:08;27.25;;;6.85;;
74593;SDS011;63097;51.872;4.460;2023-02-11T04:51:36;35.70;;;6.85;;
74593;SDS011;63097;51.872;4.460;2023-02-11T04:54:02;31.58;;;6.90;;
74593;SDS011;63097;51.872;4.460;2023-02-11T04:56:27;26.40;;;6.65;;
74593;SDS011;63097;51.872;4.460;2023-02-11T04:58:52;36.53;;;6.90;;
74593;SDS011;63097;51.872;4.460;2023-02-11T05:01:18;25.90;;;6.53;;
74593;SDS011;63097;51.872;4.460;2023-02-11T05:03:43;27.52;;;7.13;;
74593;SDS011;63097;51.872;4.460;2023-02-11T05:06:08;26.35;;;7.03;;
74593;SDS011;63097;51.872;4.460;2023-02-11T05:08:34;31.27;;;7.07;;
74593;SDS011;63097;51.872;4.460;2023-02-11T05:10:59;35.17;;;7.53;;
74593;SDS011;63097;51.872;4.460;2023-02-11T05:13:25;26.45;;;6.93;;
74593;SDS011;63097;51.872;4.460;2023-02-11T05:15:50;33.75;;;7.32;;
74593;SDS011;63097;51.872;4.460;2023-02-11T05:18:15;27.50;;;7.55;;
74593;SDS011;63097;51.872;4.460;2023-02-11T05:20:41;32.38;;;7.90;;
74593;SDS011;63097;51.872;4.460;2023-02-11T05:23:07;30.98;;;7.68;;
74593;SDS011;63097;51.872;4.460;2023-02-11T05:25:33;28.10;;;6.82;;
74593;SDS011;63097;51.872;4.460;2023-02-11T05:27:58;41.30;;;7.60;;
74593;SDS011;63097;51.872;4.460;2023-02-11T05:30:24;43.25;;;8.15;;
74593;SDS011;63097;51.872;4.460;2023-02-11T05:32:49;23.17;;;8.13;;
74593;SDS011;63097;51.872;4.460;2023-02-11T05:35:15;31.52;;;7.90;;
74593;SDS011;63097;51.872;4.460;2023-02-11T05:37:40;30.65;;;7.40;;
74593;SDS011;63097;51.872;4.460;2023-02-11T05:40:05;26.33;;;8.38;;
74593;SDS011;63097;51.872;4.460;2023-02-11T05:42:31;28.73;;;8.15;;
74593;SDS011;63097;51.872;4.460;2023-02-11T05:44:57;35.30;;;8.15;;
74593;SDS011;63097;51.872;4.460;2023-02-11T05:47:22;30.83;;;8.18;;
74593;SDS011;63097;51.872;4.460;2023-02-11T05:49:47;39.40;;;8.93;;
74593;SDS011;63097;51.872;4.460;2023-02-11T05:52:13;33.85;;;8.65;;
74593;SDS011;63097;51.872;4.460;2023-02-11T05:54:38;40.17;;;9.27;;
74593;SDS011;63097;51.872;4.460;2023-02-11T05:57:03;26.23;;;8.20;;
74593;SDS011;63097;51.872;4.460;2023-02-11T05:59:29;38.38;;;9.55;;
74593;SDS011;63097;51.872;4.460;2023-02-11T06:01:54;37.75;;;9.05;;
74593;SDS011;63097;51.872;4.460;2023-02-11T06:04:19;37.60;;;9.90;;
74593;SDS011;63097;51.872;4.460;2023-02-11T06:06:45;38.65;;;10.43;;
74593;SDS011;63097;51.872;4.460;2023-02-11T06:09:10;31.85;;;9.75;;
74593;SDS011;63097;51.872;4.460;2023-02-11T06:11:35;40.28;;;10.45;;
74593;SDS011;63097;51.872;4.460;2023-02-11T06:14:01;28.30;;;9.02;;
74593;SDS011;63097;51.872;4.460;2023-02-11T06:16:27;36.47;;;10.32;;
74593;SDS011;63097;51.872;4.460;2023-02-11T06:18:52;41.03;;;11.05;;
74593;SDS011;63097;51.872;4.460;2023-02-11T06:21:17;34.70;;;10.35;;
74593;SDS011;63097;51.872;4.460;2023-02-11T06:23:42;31.25;;;10.45;;
74593;SDS011;63097;51.872;4.460;2023-02-11T06:26:09;44.60;;;11.20;;
74593;SDS011;63097;51.872;4.460;2023-02-11T06:28:41;41.47;;;11.55;;
74593;SDS011;63097;51.872;4.460;2023-02-11T06:31:06;32.22;;;11.35;;
74593;SDS011;63097;51.872;4.460;2023-02-11T06:33:33;34.60;;;11.05;;
74593;SDS011;63097;51.872;4.460;2023-02-11T06:35:58;34.03;;;11.05;;
74593;SDS011;63097;51.872;4.460;2023-02-11T06:38:24;41.58;;;11.40;;
74593;SDS011;63097;51.872;4.460;2023-02-11T06:40:49;40.75;;;11.40;;
74593;SDS011;63097;51.872;4.460;2023-02-11T06:43:15;40.85;;;10.88;;
74593;SDS011;63097;51.872;4.460;2023-02-11T06:45:40;38.50;;;11.45;;
74593;SDS011;63097;51.872;4.460;2023-02-11T06:48:05;34.40;;;11.55;;
74593;SDS011;63097;51.872;4.460;2023-02-11T06:50:31;31.13;;;11.10;;
74593;SDS011;63097;51.872;4.460;2023-02-11T06:52:57;47.58;;;12.48;;
74593;SDS011;63097;51.872;4.460;2023-02-11T06:55:23;34.85;;;11.32;;
74593;SDS011;63097;51.872;4.460;2023-02-11T06:57:48;36.90;;;12.68;;
74593;SDS011;63097;51.872;4.460;2023-02-11T07:00:14;41.22;;;11.75;;
74593;SDS011;63097;51.872;4.460;2023-02-11T07:02:39;36.35;;;12.55;;
74593;SDS011;63097;51.872;4.460;2023-02-11T07:05:05;38.22;;;12.13;;
74593;SDS011;63097;51.872;4.460;2023-02-11T07:07:31;41.60;;;13.20;;
74593;SDS011;63097;51.872;4.460;2023-02-11T07:09:56;47.00;;;13.00;;
74593;SDS011;63097;51.872;4.460;2023-02-11T07:12:22;38.22;;;11.88;;
74593;SDS011;63097;51.872;4.460;2023-02-11T07:14:47;45.35;;;12.90;;
74593;SDS011;63097;51.872;4.460;2023-02-11T07:17:12;34.05;;;12.30;;
74593;SDS011;63097;51.872;4.460;2023-02-11T07:19:38;35.78;;;12.30;;
74593;SDS011;63097;51.872;4.460;2023-02-11T07:22:03;32.83;;;11.50;;
74593;SDS011;63097;51.872;4.460;2023-02-11T07:24:28;46.53;;;12.68;;
74593;SDS011;63097;51.872;4.460;2023-02-11T07:26:54;40.50;;;11.25;;
74593;SDS011;63097;51.872;4.460;2023-02-11T07:29:19;31.50;;;12.32;;
74593;SDS011;63097;51.872;4.460;2023-02-11T07:31:45;34.53;;;10.80;;
74593;SDS011;63097;51.872;4.460;2023-02-11T07:34:10;29.23;;;10.60;;
74593;SDS011;63097;51.872;4.460;2023-02-11T07:36:36;36.88;;;12.85;;
74593;SDS011;63097;51.872;4.460;2023-02-11T07:39:01;33.50;;;13.57;;
74593;SDS011;63097;51.872;4.460;2023-02-11T07:41:27;41.85;;;13.48;;
74593;SDS011;63097;51.872;4.460;2023-02-11T07:43:52;28.50;;;12.50;;
74593;SDS011;63097;51.872;4.460;2023-02-11T07:46:19;33.88;;;12.68;;
74593;SDS011;63097;51.872;4.460;2023-02-11T07:48:46;31.38;;;12.55;;
74593;SDS011;63097;51.872;4.460;2023-02-11T07:53:39;40.17;;;13.15;;
74593;SDS011;63097;51.872;4.460;2023-02-11T07:56:05;38.65;;;13.27;;
74593;SDS011;63097;51.872;4.460;2023-02-11T07:58:31;46.33;;;13.57;;
74593;SDS011;63097;51.872;4.460;2023-02-11T08:01:00;44.60;;;14.13;;
74593;SDS011;63097;51.872;4.460;2023-02-11T08:03:29;35.05;;;14.23;;
74593;SDS011;63097;51.872;4.460;2023-02-11T08:05:54;47.75;;;14.77;;
74593;SDS011;63097;51.872;4.460;2023-02-11T08:08:20;38.15;;;15.70;;
74593;SDS011;63097;51.872;4.460;2023-02-11T08:10:45;41.22;;;15.35;;
74593;SDS011;63097;51.872;4.460;2023-02-11T08:13:10;40.72;;;14.70;;
74593;SDS011;63097;51.872;4.460;2023-02-11T08:15:36;32.10;;;13.35;;
74593;SDS011;63097;51.872;4.460;2023-02-11T08:18:01;34.72;;;15.38;;
74593;SDS011;63097;51.872;4.460;2023-02-11T08:20:26;36.25;;;14.10;;
74593;SDS011;63097;51.872;4.460;2023-02-11T08:22:52;38.40;;;14.15;;
74593;SDS011;63097;51.872;4.460;2023-02-11T08:25:17;33.88;;;14.57;;
74593;SDS011;63097;51.872;4.460;2023-02-11T08:27:42;34.45;;;14.52;;
74593;SDS011;63097;51.872;4.460;2023-02-11T08:30:08;34.17;;;15.27;;
74593;SDS011;63097;51.872;4.460;2023-02-11T08:32:34;35.35;;;13.85;;
74593;SDS011;63097;51.872;4.460;2023-02-11T08:34:59;40.30;;;15.20;;
74593;SDS011;63097;51.872;4.460;2023-02-11T08:37:24;37.55;;;15.10;;
74593;SDS011;63097;51.872;4.460;2023-02-11T08:39:50;33.97;;;14.75;;
74593;SDS011;63097;51.872;4.460;2023-02-11T08:42:15;36.40;;;14.30;;
74593;SDS011;63097;51.872;4.460;2023-02-11T08:44:40;32.30;;;14.57;;
74593;SDS011;63097;51.872;4.460;2023-02-11T08:47:06;43.50;;;15.00;;
74593;SDS011;63097;51.872;4.460;2023-02-11T08:49:32;38.53;;;14.70;;
74593;SDS011;63097;51.872;4.460;2023-02-11T08:51:57;30.35;;;13.93;;
74593;SDS011;63097;51.872;4.460;2023-02-11T08:54:22;35.92;;;15.18;;
74593;SDS011;63097;51.872;4.460;2023-02-11T08:56:49;36.78;;;15.52;;
74593;SDS011;63097;51.872;4.460;2023-02-11T08:59:15;24.10;;;11.45;;
74593;SDS011;63097;51.872;4.460;2023-02-11T09:01:40;34.22;;;13.30;;
74593;SDS011;63097;51.872;4.460;2023-02-11T09:04:06;30.17;;;14.57;;
74593;SDS011;63097;51.872;4.460;2023-02-11T09:06:31;30.83;;;13.88;;
74593;SDS011;63097;51.872;4.460;2023-02-11T09:08:56;36.72;;;14.90;;
74593;SDS011;63097;51.872;4.460;2023-02-11T09:11:27;38.15;;;13.68;;
74593;SDS011;63097;51.872;4.460;2023-02-11T09:13:54;28.02;;;12.90;;
74593;SDS011;63097;51.872;4.460;2023-02-11T09:16:21;36.97;;;13.55;;
74593;SDS011;63097;51.872;4.460;2023-02-11T09:18:48;33.83;;;13.88;;
74593;SDS011;63097;51.872;4.460;2023-02-11T09:21:14;26.75;;;13.38;;
74593;SDS011;63097;51.872;4.460;2023-02-11T09:23:40;28.88;;;13.38;;
74593;SDS011;63097;51.872;4.460;2023-02-11T09:26:07;24.67;;;13.27;;
74593;SDS011;63097;51.872;4.460;2023-02-11T09:28:53;31.27;;;12.82;;
74593;SDS011;63097;51.872;4.460;2023-02-11T09:31:19;36.22;;;15.80;;
74593;SDS011;63097;51.872;4.460;2023-02-11T09:33:48;27.20;;;13.43;;
74593;SDS011;63097;51.872;4.460;2023-02-11T09:36:16;24.88;;;12.40;;
74593;SDS011;63097;51.872;4.460;2023-02-11T09:38:44;28.35;;;12.80;;
74593;SDS011;63097;51.872;4.460;2023-02-11T09:43:55;25.50;;;11.57;;
74593;SDS011;63097;51.872;4.460;2023-02-11T09:46:23;26.60;;;12.60;;
74593;SDS011;63097;51.872;4.460;2023-02-11T09:48:52;34.05;;;12.85;;
74593;SDS011;63097;51.872;4.460;2023-02-11T09:53:59;24.05;;;11.23;;
74593;SDS011;63097;51.872;4.460;2023-02-11T09:56:29;30.25;;;12.52;;
74593;SDS011;63097;51.872;4.460;2023-02-11T09:58:55;25.13;;;12.10;;
74593;SDS011;63097;51.872;4.460;2023-02-11T10:01:29;25.13;;;11.65;;
74593;SDS011;63097;51.872;4.460;2023-02-11T10:04:33;30.30;;;11.30;;
74593;SDS011;63097;51.872;4.460;2023-02-11T10:12:55;20.35;;;10.82;;
74593;SDS011;63097;51.872;4.460;2023-02-11T10:21:19;22.85;;;11.00;;
74593;SDS011;63097;51.872;4.460;2023-02-11T10:23:48;18.77;;;9.85;;
74593;SDS011;63097;51.872;4.460;2023-02-11T10:26:18;28.25;;;10.63;;
74593;SDS011;63097;51.872;4.460;2023-02-11T10:28:45;22.20;;;10.23;;
74593;SDS011;63097;51.872;4.460;2023-02-11T10:31:16;23.13;;;10.38;;
74593;SDS011;63097;51.872;4.460;2023-02-11T10:36:12;20.55;;;9.90;;
74593;SDS011;63097;51.872;4.460;2023-02-11T10:38:38;18.65;;;8.95;;
74593;SDS011;63097;51.872;4.460;2023-02-11T10:41:04;20.33;;;8.52;;
74593;SDS011;63097;51.872;4.460;2023-02-11T10:43:29;21.83;;;9.13;;
74593;SDS011;63097;51.872;4.460;2023-02-11T10:45:57;23.60;;;9.65;;
74593;SDS011;63097;51.872;4.460;2023-02-11T10:48:40;22.10;;;9.68;;
74593;SDS011;63097;51.872;4.460;2023-02-11T10:53:37;21.25;;;10.13;;
74593;SDS011;63097;51.872;4.460;2023-02-11T10:56:03;23.17;;;10.50;;
74593;SDS011;63097;51.872;4.460;2023-02-11T10:58:30;24.65;;;9.23;;
74593;SDS011;63097;51.872;4.460;2023-02-11T11:01:01;18.13;;;9.20;;
74593;SDS011;63097;51.872;4.460;2023-02-11T11:03:27;18.30;;;8.35;;
74593;SDS011;63097;51.872;4.460;2023-02-11T11:05:58;22.13;;;8.80;;
74593;SDS011;63097;51.872;4.460;2023-02-11T11:11:25;19.98;;;9.23;;
74593;SDS011;63097;51.872;4.460;2023-02-11T11:16:25;17.15;;;8.70;;
74593;SDS011;63097;51.872;4.460;2023-02-11T11:21:38;19.05;;;7.32;;
74593;SDS011;63097;51.872;4.460;2023-02-11T11:24:16;19.23;;;8.57;;
74593;SDS011;63097;51.872;4.460;2023-02-11T11:26:45;19.08;;;7.95;;
74593;SDS011;63097;51.872;4.460;2023-02-11T11:29:14;14.30;;;8.02;;
74593;SDS011;63097;51.872;4.460;2023-02-11T11:31:47;15.43;;;7.88;;
74593;SDS011;63097;51.872;4.460;2023-02-11T11:34:27;21.05;;;7.85;;
74593;SDS011;63097;51.872;4.460;2023-02-11T11:42:30;15.27;;;8.05;;
74593;SDS011;63097;51.872;4.460;2023-02-11T11:45:00;16.63;;;8.43;;
74593;SDS011;63097;51.872;4.460;2023-02-11T11:52:58;16.60;;;8.32;;
74593;SDS011;63097;51.872;4.460;2023-02-11T11:57:57;14.88;;;7.53;;
74593;SDS011;63097;51.872;4.460;2023-02-11T12:00:25;15.35;;;7.93;;
74593;SDS011;63097;51.872;4.460;2023-02-11T12:11:16;21.25;;;9.10;;
74593;SDS011;63097;51.872;4.460;2023-02-11T12:13:56;18.17;;;7.90;;
74593;SDS011;63097;51.872;4.460;2023-02-11T12:19:29;20.63;;;7.78;;
74593;SDS011;63097;51.872;4.460;2023-02-11T12:22:23;16.33;;;8.15;;
74593;SDS011;63097;51.872;4.460;2023-02-11T12:25:05;17.88;;;7.82;;
74593;SDS011;63097;51.872;4.460;2023-02-11T12:27:47;15.70;;;8.18;;
74593;SDS011;63097;51.872;4.460;2023-02-11T12:36:14;17.10;;;7.35;;
74593;SDS011;63097;51.872;4.460;2023-02-11T12:44:16;10.90;;;6.53;;
74593;SDS011;63097;51.872;4.460;2023-02-11T12:47:16;18.45;;;8.20;;
74593;SDS011;63097;51.872;4.460;2023-02-11T12:50:14;11.63;;;7.13;;
74593;SDS011;63097;51.872;4.460;2023-02-11T12:55:44;14.50;;;6.45;;
74593;SDS011;63097;51.872;4.460;2023-02-11T12:58:19;13.40;;;6.40;;
74593;SDS011;63097;51.872;4.460;2023-02-11T13:00:52;14.35;;;6.40;;
74593;SDS011;63097;51.872;4.460;2023-02-11T13:03:29;14.18;;;6.28;;
74593;SDS011;63097;51.872;4.460;2023-02-11T13:06:00;10.02;;;5.40;;
74593;SDS011;63097;51.872;4.460;2023-02-11T13:08:36;13.25;;;6.25;;
74593;SDS011;63097;51.872;4.460;2023-02-11T13:11:11;10.00;;;5.93;;
74593;SDS011;63097;51.872;4.460;2023-02-11T13:13:46;10.77;;;5.90;;
74593;SDS011;63097;51.872;4.460;2023-02-11T13:18:56;9.05;;;5.35;;
74593;SDS011;63097;51.872;4.460;2023-02-11T13:30:22;11.38;;;5.45;;
74593;SDS011;63097;51.872;4.460;2023-02-11T13:37:53;12.20;;;4.65;;
74593;SDS011;63097;51.872;4.460;2023-02-11T13:40:21;9.95;;;5.65;;
74593;SDS011;63097;51.872;4.460;2023-02-11T13:42:58;9.55;;;4.55;;
74593;SDS011;63097;51.872;4.460;2023-02-11T13:45:41;11.32;;;4.60;;
74593;SDS011;63097;51.872;4.460;2023-02-11T13:48:54;10.30;;;4.82;;
74593;SDS011;63097;51.872;4.460;2023-02-11T13:51:07;10.18;;;4.55;;
74593;SDS011;63097;51.872;4.460;2023-02-11T13:56:27;7.32;;;4.35;;
74593;SDS011;63097;51.872;4.460;2023-02-11T13:59:05;11.45;;;5.30;;
74593;SDS011;63097;51.872;4.460;2023-02-11T14:23:34;9.95;;;5.38;;
74593;SDS011;63097;51.872;4.460;2023-02-11T14:31:36;16.42;;;4.97;;
74593;SDS011;63097;51.872;4.460;2023-02-11T14:37:11;9.77;;;4.00;;
74593;SDS011;63097;51.872;4.460;2023-02-11T14:42:31;9.93;;;3.75;;
74593;SDS011;63097;51.872;4.460;2023-02-11T14:45:02;5.90;;;3.20;;
74593;SDS011;63097;51.872;4.460;2023-02-11T14:47:50;11.85;;;3.72;;
74593;SDS011;63097;51.872;4.460;2023-02-11T14:50:46;5.38;;;2.85;;
74593;SDS011;63097;51.872;4.460;2023-02-11T14:53:18;8.10;;;3.83;;
74593;SDS011;63097;51.872;4.460;2023-02-11T14:55:47;9.15;;;3.13;;
74593;SDS011;63097;51.872;4.460;2023-02-11T14:58:15;6.78;;;3.25;;
74593;SDS011;63097;51.872;4.460;2023-02-11T15:06:06;6.82;;;2.30;;
74593;SDS011;63097;51.872;4.460;2023-02-11T15:08:41;5.25;;;2.15;;
74593;SDS011;63097;51.872;4.460;2023-02-11T15:11:10;2.17;;;1.75;;
74593;SDS011;63097;51.872;4.460;2023-02-11T15:13:37;7.20;;;2.20;;
74593;SDS011;63097;51.872;4.460;2023-02-11T15:16:04;4.95;;;2.30;;
74593;SDS011;63097;51.872;4.460;2023-02-11T15:18:36;5.50;;;2.10;;
74593;SDS011;63097;51.872;4.460;2023-02-11T15:21:04;6.28;;;2.13;;
74593;SDS011;63097;51.872;4.460;2023-02-11T15:23:30;3.63;;;2.00;;
74593;SDS011;63097;51.872;4.460;2023-02-11T15:25:56;4.57;;;1.83;;
74593;SDS011;63097;51.872;4.460;2023-02-11T15:28:23;3.83;;;1.38;;
74593;SDS011;63097;51.872;4.460;2023-02-11T15:31:01;4.85;;;2.38;;
74593;SDS011;63097;51.872;4.460;2023-02-11T15:33:28;2.70;;;1.52;;
74593;SDS011;63097;51.872;4.460;2023-02-11T15:35:54;4.30;;;2.17;;
74593;SDS011;63097;51.872;4.460;2023-02-11T15:38:20;4.55;;;2.35;;
74593;SDS011;63097;51.872;4.460;2023-02-11T15:40:56;4.75;;;2.08;;
74593;SDS011;63097;51.872;4.460;2023-02-11T15:43:23;12.43;;;5.55;;
74593;SDS011;63097;51.872;4.460;2023-02-11T15:45:52;5.63;;;2.22;;
74593;SDS011;63097;51.872;4.460;2023-02-11T15:48:22;5.35;;;1.70;;
74593;SDS011;63097;51.872;4.460;2023-02-11T15:50:53;2.20;;;1.10;;
74593;SDS011;63097;51.872;4.460;2023-02-11T15:55:54;5.32;;;2.25;;
74593;SDS011;63097;51.872;4.460;2023-02-11T15:58:25;3.08;;;2.08;;
74593;SDS011;63097;51.872;4.460;2023-02-11T16:00:51;9.40;;;2.60;;
74593;SDS011;63097;51.872;4.460;2023-02-11T16:03:21;4.53;;;1.80;;
74593;SDS011;63097;51.872;4.460;2023-02-11T16:05:52;2.65;;;1.35;;
74593;SDS011;63097;51.872;4.460;2023-02-11T16:08:22;5.22;;;1.75;;
74593;SDS011;63097;51.872;4.460;2023-02-11T16:10:53;4.40;;;2.00;;
74593;SDS011;63097;51.872;4.460;2023-02-11T16:13:26;7.63;;;1.80;;
74593;SDS011;63097;51.872;4.460;2023-02-11T16:15:56;4.32;;;2.33;;
74593;SDS011;63097;51.872;4.460;2023-02-11T16:18:36;3.40;;;1.88;;
74593;SDS011;63097;51.872;4.460;2023-02-11T16:21:03;5.45;;;2.33;;
74593;SDS011;63097;51.872;4.460;2023-02-11T16:23:39;4.00;;;2.10;;
74593;SDS011;63097;51.872;4.460;2023-02-11T16:26:08;4.55;;;2.63;;
74593;SDS011;63097;51.872;4.460;2023-02-11T16:28:43;4.68;;;2.80;;
74593;SDS011;63097;51.872;4.460;2023-02-11T16:31:09;6.80;;;2.72;;
74593;SDS011;63097;51.872;4.460;2023-02-11T16:33:34;5.50;;;2.40;;
74593;SDS011;63097;51.872;4.460;2023-02-11T16:35:59;2.20;;;2.00;;
74593;SDS011;63097;51.872;4.460;2023-02-11T16:38:24;6.53;;;2.20;;
74593;SDS011;63097;51.872;4.460;2023-02-11T16:40:50;6.25;;;2.30;;
74593;SDS011;63097;51.872;4.460;2023-02-11T16:43:18;2.95;;;1.80;;
74593;SDS011;63097;51.872;4.460;2023-02-11T16:45:44;9.13;;;2.05;;
74593;SDS011;63097;51.872;4.460;2023-02-11T16:48:10;2.50;;;1.73;;
74593;SDS011;63097;51.872;4.460;2023-02-11T16:50:42;4.28;;;1.67;;
74593;SDS011;63097;51.872;4.460;2023-02-11T16:53:09;6.65;;;1.90;;
74593;SDS011;63097;51.872;4.460;2023-02-11T16:55:34;3.38;;;2.05;;
74593;SDS011;63097;51.872;4.460;2023-02-11T16:58:00;4.43;;;2.00;;
74593;SDS011;63097;51.872;4.460;2023-02-11T17:00:25;4.05;;;2.22;;
74593;SDS011;63097;51.872;4.460;2023-02-11T17:02:50;5.22;;;2.72;;
74593;SDS011;63097;51.872;4.460;2023-02-11T17:05:17;4.18;;;2.78;;
74593;SDS011;63097;51.872;4.460;2023-02-11T17:07:44;6.95;;;2.50;;
74593;SDS011;63097;51.872;4.460;2023-02-11T17:10:28;7.03;;;2.40;;
74593;SDS011;63097;51.872;4.460;2023-02-11T17:12:53;5.80;;;2.60;;
74593;SDS011;63097;51.872;4.460;2023-02-11T17:15:19;5.95;;;2.50;;
74593;SDS011;63097;51.872;4.460;2023-02-11T17:17:44;3.50;;;2.30;;
74593;SDS011;63097;51.872;4.460;2023-02-11T17:20:10;5.57;;;2.58;;
74593;SDS011;63097;51.872;4.460;2023-02-11T17:22:37;4.05;;;2.40;;
74593;SDS011;63097;51.872;4.460;2023-02-11T17:25:02;9.68;;;2.53;;
74593;SDS011;63097;51.872;4.460;2023-02-11T17:27:27;5.53;;;2.60;;
74593;SDS011;63097;51.872;4.460;2023-02-11T17:29:53;5.93;;;2.22;;
74593;SDS011;63097;51.872;4.460;2023-02-11T17:32:18;4.93;;;2.40;;
74593;SDS011;63097;51.872;4.460;2023-02-11T17:34:43;4.95;;;2.63;;
74593;SDS011;63097;51.872;4.460;2023-02-11T17:37:09;6.03;;;2.80;;